Time;durP1;ratioP1;P1;durP2;ratioP2;P2;SDS_P1;SDS_P2;PMS_P1;PMS_P2;Temp;Humidity;BMP_temperature;BMP_pressure;BME280_temperature;BME280_humidity;BME280_pressure;Samples;Min_cycle;Max_cycle;Signal;HPM_P1;HPM_P2
2021/10/12 00:02:24;;;;;;;48.30;20.90;;;;;;;4.75;65.33;98776.98;112480;1190;75618;-22
2021/10/12 00:04:52;;;;;;;49.30;20.60;;;;;;;4.67;65.46;98772.48;112438;1193;73985;-22
2021/10/12 00:07:21;;;;;;;46.20;20.20;;;;;;;4.59;66.04;98772.77;112497;1190;60918;-22
2021/10/12 00:09:49;;;;;;;30.70;12.40;;;;;;;4.57;65.89;98769.44;112538;1190;61569;-22
2021/10/12 00:12:18;;;;;;;34.70;15.50;;;;;;;5.16;65.82;98766.48;112526;1190;74987;-22
2021/10/12 00:14:46;;;;;;;53.70;18.90;;;;;;;5.93;64.06;98766.23;112539;1189;75638;-22
2021/10/12 00:17:17;;;;;;;40.80;17.70;;;;;;;6.15;63.05;98764.79;112493;1190;73910;-23
2021/10/12 00:19:45;;;;;;;39.90;19.60;;;;;;;6.09;62.85;98759.02;112478;1190;60835;-23
2021/10/12 00:22:15;;;;;;;44.90;19.90;;;;;;;5.93;62.99;98756.56;112519;1190;61429;-23
2021/10/12 00:24:43;;;;;;;39.80;18.30;;;;;;;5.75;63.03;98753.09;112447;1193;74413;-22
2021/10/12 00:27:12;;;;;;;39.90;18.60;;;;;;;5.59;63.20;98751.40;112525;1190;75368;-22
2021/10/12 00:29:42;;;;;;;39.20;18.40;;;;;;;5.44;63.99;98751.84;112473;1190;73884;-22
2021/10/12 00:32:10;;;;;;;35.00;17.10;;;;;;;5.29;64.08;98752.59;112479;1190;60874;-23
2021/10/12 00:34:38;;;;;;;40.40;17.20;;;;;;;5.15;64.47;98753.30;112517;1190;61508;-22
2021/10/12 00:37:07;;;;;;;38.80;16.90;;;;;;;5.02;64.90;98744.52;112515;1190;75117;-22
2021/10/12 00:39:35;;;;;;;46.80;18.90;;;;;;;4.92;65.81;98740.84;112472;1190;74664;-22
2021/10/12 00:42:03;;;;;;;36.10;17.40;;;;;;;4.82;66.37;98739.73;112393;1184;72229;-22
2021/10/12 00:44:33;;;;;;;32.30;14.10;;;;;;;4.78;66.85;98739.48;112377;1191;60751;-23
2021/10/12 00:47:02;;;;;;;36.10;17.30;;;;;;;5.35;66.84;98736.38;112397;1191;60893;-22
2021/10/12 00:49:35;;;;;;;38.90;17.20;;;;;;;6.13;65.69;98733.71;112490;1192;75143;-22
2021/10/12 00:52:03;;;;;;;35.90;16.30;;;;;;;6.35;64.86;98730.16;112450;1190;76081;-22
2021/10/12 00:54:31;;;;;;;39.60;17.40;;;;;;;6.28;64.21;98727.73;112444;1190;74152;-21
2021/10/12 00:57:00;;;;;;;41.50;18.90;;;;;;;6.10;63.93;98724.77;112352;1190;60801;-22
2021/10/12 00:59:28;;;;;;;39.40;18.20;;;;;;;5.92;64.15;98723.21;112419;1190;60826;-22
2021/10/12 01:01:57;;;;;;;29.00;16.30;;;;;;;5.74;64.23;98717.46;112465;1190;75089;-22
2021/10/12 01:04:26;;;;;;;30.50;15.80;;;;;;;5.57;64.27;98714.99;112444;1190;74758;-22
2021/10/12 01:06:54;;;;;;;33.40;15.80;;;;;;;5.41;64.88;98715.15;112314;1190;72773;-22
2021/10/12 01:09:22;;;;;;;33.00;16.20;;;;;;;5.29;65.16;98709.92;112450;1190;60835;-22
2021/10/12 01:11:51;;;;;;;30.10;15.60;;;;;;;5.20;65.11;98706.89;112502;1189;60812;-22
2021/10/12 01:14:19;;;;;;;31.70;15.80;;;;;;;5.12;65.26;98704.98;112563;1190;74173;-22
2021/10/12 01:16:51;;;;;;;32.90;15.90;;;;;;;5.06;64.77;98698.87;112533;1190;76086;-22
2021/10/12 01:19:19;;;;;;;33.90;16.20;;;;;;;5.00;64.91;98697.48;112584;1190;73047;-22
2021/10/12 01:21:49;;;;;;;30.20;13.10;;;;;;;4.99;65.54;98698.77;112234;1190;60855;-22
2021/10/12 01:24:17;;;;;;;30.40;13.60;;;;;;;5.58;65.56;98702.56;112505;1190;60917;-22
2021/10/12 01:26:46;;;;;;;33.10;14.20;;;;;;;6.35;63.37;98703.12;112501;1191;72770;-22
2021/10/12 01:29:15;;;;;;;35.00;16.20;;;;;;;6.57;62.08;98697.80;112531;1190;75451;-22
2021/10/12 01:31:43;;;;;;;31.10;18.00;;;;;;;6.52;61.75;98696.60;112527;1190;73189;-22
2021/10/12 01:34:19;;;;;;;43.00;18.70;;;;;;;6.36;61.74;98697.48;112484;1190;60815;-22
2021/10/12 01:36:48;;;;;;;39.30;17.40;;;;;;;6.17;61.78;98689.83;112255;1190;62018;-22
2021/10/12 01:39:16;;;;;;;35.70;17.40;;;;;;;6.00;62.13;98686.16;112401;1190;75280;-22
2021/10/12 01:41:45;;;;;;;32.20;17.70;;;;;;;5.83;62.22;98683.15;112470;1190;74669;-22
2021/10/12 01:44:14;;;;;;;32.90;16.80;;;;;;;5.67;62.14;98680.73;112477;1190;73741;-22
2021/10/12 01:46:42;;;;;;;36.30;16.10;;;;;;;5.53;62.64;98677.21;112410;1190;60835;-22
2021/10/12 01:49:11;;;;;;;35.90;17.70;;;;;;;5.41;63.07;98673.69;112502;1190;60830;-23
2021/10/12 01:51:39;;;;;;;36.50;17.20;;;;;;;5.30;64.08;98667.52;112489;1190;75486;-22
2021/10/12 01:54:33;;;;;;;32.70;16.40;;;;;;;5.21;64.92;98668.50;112561;1190;75507;-22
2021/10/12 01:57:02;;;;;;;31.80;17.00;;;;;;;5.10;66.35;98669.36;112490;1190;73878;-22
2021/10/12 01:59:30;;;;;;;22.80;10.30;;;;;;;5.04;65.65;98665.73;112502;1190;60832;-22
2021/10/12 02:02:01;;;;;;;31.80;14.50;;;;;;;5.60;65.67;98666.56;112459;1190;60847;-22
2021/10/12 02:04:34;;;;;;;33.20;15.80;;;;;;;6.35;63.96;98663.27;112449;1190;74997;-22
2021/10/12 02:07:02;;;;;;;38.00;16.70;;;;;;;6.53;62.43;98660.78;112514;1190;75641;-22
2021/10/12 02:09:31;;;;;;;34.80;17.70;;;;;;;6.46;62.17;98656.09;112417;1192;73165;-22
2021/10/12 02:11:59;;;;;;;36.00;18.90;;;;;;;6.31;62.18;98659.04;112545;1190;60860;-22
2021/10/12 02:14:28;;;;;;;34.00;17.00;;;;;;;6.15;62.45;98657.58;112562;1190;60859;-22
2021/10/12 02:16:56;;;;;;;32.50;16.30;;;;;;;5.97;62.48;98651.70;112382;1192;74943;-22
2021/10/12 02:19:25;;;;;;;34.60;17.50;;;;;;;5.82;62.50;98650.47;112460;1190;75672;-23
2021/10/12 02:21:53;;;;;;;32.40;16.00;;;;;;;5.69;63.14;98646.52;112418;1190;70965;-23
2021/10/12 02:24:21;;;;;;;32.30;16.40;;;;;;;5.60;62.89;98644.06;112462;1177;60780;-21
2021/10/12 02:26:49;;;;;;;34.40;16.50;;;;;;;5.50;63.13;98644.36;112430;1191;60852;-22
2021/10/12 02:29:18;;;;;;;34.30;16.50;;;;;;;5.40;63.37;98639.66;112497;1190;75773;-22
2021/10/12 02:31:46;;;;;;;30.70;15.80;;;;;;;5.32;63.93;98640.02;112454;1174;75656;-22
2021/10/12 02:34:15;;;;;;;34.20;16.50;;;;;;;5.27;63.31;98633.01;112560;1190;72190;-22
2021/10/12 02:36:43;;;;;;;37.30;16.80;;;;;;;5.20;63.70;98630.64;112511;1190;60817;-22
2021/10/12 02:39:12;;;;;;;32.70;14.70;;;;;;;5.17;63.67;98631.36;112498;1190;60824;-22
2021/10/12 02:41:40;;;;;;;37.30;15.50;;;;;;;5.14;63.53;98627.95;112492;1190;75203;-22
2021/10/12 02:44:09;;;;;;;36.30;16.30;;;;;;;5.12;64.01;98623.29;112440;1190;75629;-22
2021/10/12 02:46:37;;;;;;;37.30;16.80;;;;;;;5.09;63.78;98623.44;112476;1190;71645;-22
2021/10/12 02:49:16;;;;;;;26.50;11.10;;;;;;;5.12;64.27;98618.47;112456;1190;61592;-22
2021/10/12 02:51:44;;;;;;;35.10;15.30;;;;;;;5.81;63.86;98623.66;112359;1190;60885;-22
2021/10/12 02:54:12;;;;;;;35.80;16.70;;;;;;;6.63;62.63;98623.03;112415;1190;75209;-22
2021/10/12 02:56:41;;;;;;;41.30;17.40;;;;;;;6.88;61.83;98623.98;112485;1190;75423;-22
2021/10/12 02:59:09;;;;;;;37.30;18.40;;;;;;;6.83;61.24;98617.98;112503;1190;74080;-22
2021/10/12 03:01:37;;;;;;;37.00;18.20;;;;;;;6.68;61.57;98615.42;112471;1190;60822;-22
2021/10/12 03:04:06;;;;;;;36.20;17.90;;;;;;;6.50;62.09;98617.02;112532;1190;61859;-23
2021/10/12 03:06:34;;;;;;;37.60;17.60;;;;;;;6.33;62.18;98618.79;112360;1193;74314;-22
2021/10/12 03:09:03;;;;;;;36.00;17.20;;;;;;;6.15;62.65;98615.17;112404;1190;75640;-21
2021/10/12 03:11:32;;;;;;;32.10;15.90;;;;;;;5.99;62.65;98615.02;112556;1190;73927;-22
2021/10/12 03:14:01;;;;;;;38.10;17.20;;;;;;;5.86;63.47;98617.51;112515;1190;60888;-22
2021/10/12 03:16:33;;;;;;;33.60;16.80;;;;;;;5.72;63.64;98610.85;112292;1192;60823;-22
2021/10/12 03:19:03;;;;;;;37.60;16.90;;;;;;;5.61;63.42;98607.30;112370;1190;74376;-22
2021/10/12 03:21:34;;;;;;;34.10;17.00;;;;;;;5.54;63.50;98600.91;112540;1190;74615;-22
2021/10/12 03:24:03;;;;;;;33.50;16.90;;;;;;;5.48;64.34;98596.61;112463;1190;72243;-22
2021/10/12 03:26:33;;;;;;;38.30;15.90;;;;;;;5.44;64.12;98593.80;112444;1192;60848;-22
2021/10/12 03:29:02;;;;;;;34.60;16.30;;;;;;;5.38;63.49;98591.80;112566;1189;60780;-21
2021/10/12 03:31:30;;;;;;;34.50;15.10;;;;;;;5.33;63.14;98591.58;112472;1190;73935;-23
2021/10/12 03:33:59;;;;;;;29.00;13.00;;;;;;;5.31;63.83;98593.24;112513;1183;75445;-23
2021/10/12 03:36:27;;;;;;;28.60;12.20;;;;;;;5.92;63.00;98593.85;112459;1190;72179;-22
2021/10/12 03:38:55;;;;;;;31.30;15.00;;;;;;;6.74;61.65;98589.43;112488;1190;61411;-23
2021/10/12 03:41:23;;;;;;;28.70;15.90;;;;;;;6.99;60.30;98589.21;112407;1190;61500;-23
2021/10/12 03:43:52;;;;;;;33.00;15.40;;;;;;;6.92;60.20;98587.09;112543;1189;75393;-23
2021/10/12 03:46:20;;;;;;;34.10;17.00;;;;;;;6.76;60.20;98585.70;112537;1187;74477;-22
2021/10/12 03:48:49;;;;;;;31.60;16.90;;;;;;;6.58;60.16;98589.59;112461;1189;73923;-23
2021/10/12 03:51:17;;;;;;;32.50;15.50;;;;;;;6.41;59.69;98587.15;112437;1190;61283;-23
2021/10/12 03:53:45;;;;;;;31.10;16.10;;;;;;;6.25;60.06;98581.53;112512;1190;61683;-22
2021/10/12 03:56:14;;;;;;;33.20;15.70;;;;;;;6.13;60.22;98582.39;112549;1190;75161;-22
2021/10/12 03:58:42;;;;;;;31.40;16.50;;;;;;;6.01;59.98;98579.77;112461;1190;75322;-22
2021/10/12 04:01:10;;;;;;;35.90;16.60;;;;;;;5.90;60.21;98577.58;112506;1190;73805;-22
2021/10/12 04:03:40;;;;;;;32.90;16.20;;;;;;;5.79;60.13;98575.91;112542;1189;60819;-22
2021/10/12 04:06:08;;;;;;;37.20;18.40;;;;;;;5.72;60.56;98577.95;112452;1192;60891;-22
2021/10/12 04:08:37;;;;;;;42.70;18.50;;;;;;;5.63;60.66;98574.44;112490;1190;73684;-22
2021/10/12 04:11:09;;;;;;;35.70;18.10;;;;;;;5.54;60.76;98574.52;112445;1190;74674;-22
2021/10/12 04:13:37;;;;;;;36.60;17.70;;;;;;;5.46;61.00;98572.82;112377;1190;74072;-22
2021/10/12 04:16:08;;;;;;;39.20;17.00;;;;;;;5.37;61.52;98569.48;112414;1192;60975;-23
2021/10/12 04:18:36;;;;;;;29.90;16.70;;;;;;;5.28;61.86;98567.65;112435;1190;60734;-22
2021/10/12 04:21:04;;;;;;;33.40;16.70;;;;;;;5.20;62.33;98562.52;112470;1190;75235;-22
2021/10/12 04:23:35;;;;;;;37.50;16.80;;;;;;;5.11;62.65;98557.60;112558;1190;75566;-22
2021/10/12 04:26:08;;;;;;;32.20;16.30;;;;;;;5.03;62.91;98560.86;112498;1190;74054;-22
2021/10/12 04:28:44;;;;;;;32.80;17.20;;;;;;;4.96;63.44;98553.09;112457;1190;60786;-22
2021/10/12 04:31:12;;;;;;;32.10;12.90;;;;;;;4.90;64.45;98554.63;112515;1192;61706;-22
2021/10/12 04:33:40;;;;;;;32.50;15.30;;;;;;;5.45;64.58;98555.48;112451;1190;74337;-22
2021/10/12 04:36:08;;;;;;;34.60;16.00;;;;;;;6.18;63.20;98553.08;112384;1190;75833;-22
2021/10/12 04:38:37;;;;;;;44.60;19.70;;;;;;;6.39;62.47;98551.91;112478;1190;73677;-22
2021/10/12 04:41:07;;;;;;;40.20;20.50;;;;;;;6.32;62.64;98549.02;112393;1192;61721;-22
2021/10/12 04:43:36;;;;;;;41.10;20.00;;;;;;;6.15;62.88;98549.16;112421;1190;60901;-22
2021/10/12 04:46:04;;;;;;;34.00;18.70;;;;;;;5.98;63.33;98546.52;112520;1190;74923;-22
2021/10/12 04:48:33;;;;;;;40.50;20.60;;;;;;;5.84;64.02;98548.88;112497;1190;75662;-22
2021/10/12 04:51:02;;;;;;;41.90;20.00;;;;;;;5.72;63.84;98542.95;112287;1190;71221;-22
2021/10/12 04:53:30;;;;;;;35.50;18.30;;;;;;;5.61;64.51;98547.73;112425;1190;60866;-22
2021/10/12 04:55:58;;;;;;;41.30;19.60;;;;;;;5.49;64.58;98546.08;112478;1190;61798;-22
2021/10/12 04:58:28;;;;;;;41.70;19.80;;;;;;;5.39;64.48;98544.37;112448;1192;74949;-22
2021/10/12 05:00:56;;;;;;;39.20;18.40;;;;;;;5.30;66.23;98543.92;112434;1190;74567;-22
2021/10/12 05:03:25;;;;;;;31.70;17.00;;;;;;;5.24;64.85;98539.88;112376;1190;73819;-22
2021/10/12 05:05:53;;;;;;;30.80;13.60;;;;;;;5.21;65.18;98542.80;112453;1190;60875;-22
2021/10/12 05:08:21;;;;;;;37.70;17.20;;;;;;;5.79;65.80;98541.84;112454;1190;60828;-22
2021/10/12 05:10:50;;;;;;;33.40;17.40;;;;;;;6.54;64.42;98541.71;112367;1184;74319;-21
2021/10/12 05:13:19;;;;;;;37.60;17.70;;;;;;;6.78;63.29;98540.68;112400;1190;74308;-22
2021/10/12 05:15:48;;;;;;;42.60;21.40;;;;;;;6.73;62.69;98539.64;112463;1190;73958;-22
2021/10/12 05:18:25;;;;;;;40.20;21.70;;;;;;;6.62;62.39;98540.80;112506;1190;62166;-21
2021/10/12 05:20:53;;;;;;;39.60;20.30;;;;;;;6.52;63.11;98543.39;112563;1190;61420;-22
2021/10/12 05:23:38;;;;;;;46.40;20.30;;;;;;;6.44;63.37;98543.85;112446;1190;74362;-21
2021/10/12 05:26:06;;;;;;;43.50;18.90;;;;;;;6.36;62.45;98543.20;112506;1190;74894;-22
2021/10/12 05:28:35;;;;;;;29.00;16.50;;;;;;;6.28;63.22;98541.66;112163;1193;74014;-22
2021/10/12 05:31:04;;;;;;;35.20;17.00;;;;;;;6.22;62.85;98542.79;112466;1190;60900;-21
2021/10/12 05:33:33;;;;;;;30.10;15.00;;;;;;;6.16;63.09;98542.39;112483;1190;60841;-22
2021/10/12 05:36:03;;;;;;;34.80;17.50;;;;;;;6.09;63.62;98541.98;112433;1191;75314;-21
2021/10/12 05:38:31;;;;;;;31.90;17.30;;;;;;;6.03;63.93;98539.98;112237;1192;75061;-22
2021/10/12 05:41:01;;;;;;;37.40;17.40;;;;;;;6.00;64.28;98540.23;112488;1190;73222;-21
2021/10/12 05:43:30;;;;;;;32.20;16.50;;;;;;;5.98;64.91;98539.10;112412;1192;60868;-22
2021/10/12 05:45:58;;;;;;;31.60;13.50;;;;;;;6.03;64.63;98542.09;112484;1192;62162;-22
2021/10/12 05:48:26;;;;;;;32.00;15.60;;;;;;;6.69;65.44;98541.83;112515;1190;73184;-21
2021/10/12 05:50:55;;;;;;;35.90;17.90;;;;;;;7.49;63.29;98542.60;112338;1190;74318;-22
2021/10/12 05:53:40;;;;;;;34.80;19.00;;;;;;;7.76;62.06;98542.98;112477;1190;73410;-22
2021/10/12 05:56:13;;;;;;;41.50;20.10;;;;;;;7.71;61.85;98541.95;112514;1190;60839;-21
2021/10/12 05:58:43;;;;;;;40.30;20.30;;;;;;;7.58;61.97;98540.73;112535;1190;61711;-22
2021/10/12 06:01:12;;;;;;;34.70;18.30;;;;;;;7.42;62.04;98545.58;112548;1190;75192;-23
2021/10/12 06:03:41;;;;;;;42.40;19.30;;;;;;;7.26;62.55;98538.34;112540;1190;76489;-21
2021/10/12 06:06:11;;;;;;;37.30;19.20;;;;;;;7.14;63.07;98538.75;112344;1192;72936;-22
2021/10/12 06:08:40;;;;;;;40.80;19.70;;;;;;;7.06;63.27;98538.50;112484;1190;61797;-21
2021/10/12 06:11:09;;;;;;;38.50;18.90;;;;;;;6.98;62.63;98543.70;112269;1192;61665;-23
2021/10/12 06:13:39;;;;;;;38.40;20.30;;;;;;;6.90;63.44;98547.23;112406;1191;73924;-22
2021/10/12 06:16:08;;;;;;;33.70;19.10;;;;;;;6.83;63.53;98545.16;112281;1192;74501;-22
2021/10/12 06:18:36;;;;;;;35.40;18.40;;;;;;;6.77;64.09;98545.59;112447;1192;73309;-21
2021/10/12 06:21:06;;;;;;;41.70;20.30;;;;;;;6.73;63.94;98549.15;112540;1190;60803;-20
2021/10/12 06:23:35;;;;;;;46.00;22.40;;;;;;;6.70;62.41;98547.15;112540;1190;60921;-21
2021/10/12 06:26:03;;;;;;;46.90;21.50;;;;;;;6.66;61.91;98542.08;112475;1190;74586;-20
2021/10/12 06:28:32;;;;;;;46.40;21.60;;;;;;;6.63;61.38;98543.85;112340;1190;75743;-24
2021/10/12 06:31:00;;;;;;;38.60;20.20;;;;;;;6.67;62.14;98546.66;112510;1177;73988;-23
2021/10/12 06:33:29;;;;;;;40.90;19.40;;;;;;;6.75;61.80;98549.55;112434;1190;60764;-25
2021/10/12 06:35:57;;;;;;;39.00;18.80;;;;;;;6.88;61.15;98550.48;112411;1190;60771;-24
2021/10/12 06:38:25;;;;;;;39.40;20.60;;;;;;;6.97;60.97;98549.83;112486;1190;75212;-22
2021/10/12 06:40:54;;;;;;;34.50;18.60;;;;;;;7.08;61.01;98549.34;112470;1190;75731;-22
2021/10/12 06:43:22;;;;;;;33.00;18.10;;;;;;;7.18;60.25;98547.55;112457;1190;73258;-21
2021/10/12 06:45:51;;;;;;;34.40;17.70;;;;;;;7.21;59.12;98544.41;112505;1190;60796;-23
2021/10/12 06:48:19;;;;;;;37.00;18.40;;;;;;;7.28;59.20;98545.63;112500;1189;60806;-24
2021/10/12 06:50:47;;;;;;;36.00;18.20;;;;;;;7.37;59.79;98541.64;112390;1192;73830;-24
2021/10/12 06:53:38;;;;;;;34.70;18.00;;;;;;;7.48;59.35;98542.55;112425;1190;74675;-24
2021/10/12 06:56:06;;;;;;;32.80;16.40;;;;;;;7.54;59.41;98545.17;112404;1190;73170;-24
2021/10/12 06:58:37;;;;;;;35.80;18.70;;;;;;;7.66;58.88;98545.18;112433;1190;60790;-23
2021/10/12 07:01:21;;;;;;;36.70;18.10;;;;;;;7.69;58.84;98547.66;112509;1190;60928;-21
2021/10/12 07:03:50;;;;;;;33.20;16.70;;;;;;;7.76;59.09;98548.55;112488;1189;74058;-22
2021/10/12 07:06:18;;;;;;;56.40;19.00;;;;;;;7.85;59.03;98545.06;112480;1189;74693;-22
2021/10/12 07:08:47;;;;;;;39.70;20.40;;;;;;;7.99;59.59;98547.13;112390;1192;74137;-22
2021/10/12 07:11:15;;;;;;;30.70;17.60;;;;;;;8.10;58.37;98545.74;112461;1190;60765;-23
2021/10/12 07:13:49;;;;;;;41.60;18.90;;;;;;;8.19;57.93;98552.10;112431;1190;60809;-22
2021/10/12 07:16:21;;;;;;;38.20;18.70;;;;;;;8.32;58.51;98548.33;112515;1190;75409;-22
2021/10/12 07:18:53;;;;;;;41.40;19.00;;;;;;;8.47;58.56;98553.32;112589;1190;75068;-22
2021/10/12 07:21:21;;;;;;;38.20;19.10;;;;;;;8.64;58.30;98548.06;112604;1190;73273;-22
2021/10/12 07:23:51;;;;;;;39.60;20.10;;;;;;;8.82;57.65;98542.44;112440;1190;60799;-22
2021/10/12 07:26:19;;;;;;;32.00;17.90;;;;;;;8.96;58.07;98544.35;112409;1191;61407;-22
2021/10/12 07:28:47;;;;;;;39.30;20.50;;;;;;;9.07;57.83;98545.23;112470;1190;74210;-22
2021/10/12 07:31:16;;;;;;;39.50;19.90;;;;;;;9.14;56.71;98542.41;112525;1190;74621;-22
2021/10/12 07:33:44;;;;;;;34.10;19.70;;;;;;;9.19;56.59;98540.27;112472;1190;73282;-22
2021/10/12 07:36:13;;;;;;;32.60;18.10;;;;;;;9.26;57.29;98534.63;112483;1190;60945;-21
2021/10/12 07:38:44;;;;;;;37.10;20.10;;;;;;;9.30;56.66;98534.60;112493;1190;60858;-22
2021/10/12 07:41:27;;;;;;;37.70;18.90;;;;;;;9.33;56.39;98536.12;112319;1192;74965;-22
2021/10/12 07:43:56;;;;;;;40.80;18.90;;;;;;;9.36;56.38;98537.07;112520;1190;77297;-22
2021/10/12 07:46:25;;;;;;;37.10;20.30;;;;;;;9.41;56.63;98531.33;112556;1190;73916;-21
2021/10/12 07:48:57;;;;;;;37.30;20.70;;;;;;;9.48;56.47;98533.29;112275;1190;60924;-21
2021/10/12 07:51:40;;;;;;;39.40;19.40;;;;;;;9.57;55.96;98534.83;112520;1190;60778;-22
2021/10/12 07:54:15;;;;;;;40.10;21.10;;;;;;;9.62;55.87;98534.89;112467;1192;75345;-22
2021/10/12 07:56:44;;;;;;;37.20;19.30;;;;;;;9.72;55.44;98529.73;112470;1190;75420;-22
2021/10/12 07:59:12;;;;;;;42.80;19.00;;;;;;;9.82;55.23;98529.57;112450;1192;73204;-21
2021/10/12 08:01:41;;;;;;;58.90;20.90;;;;;;;9.92;54.76;98529.92;112408;1192;60825;-20
2021/10/12 08:04:10;;;;;;;33.90;17.40;;;;;;;10.06;54.59;98527.86;112550;1190;60726;-22
2021/10/12 08:06:39;;;;;;;39.80;21.10;;;;;;;10.20;54.43;98526.10;112551;1189;74734;-22
2021/10/12 08:09:07;;;;;;;37.50;19.30;;;;;;;10.33;54.71;98522.38;112425;1191;74651;-22
2021/10/12 08:11:36;;;;;;;35.80;16.50;;;;;;;10.46;53.51;98519.21;112558;1190;73504;-22
2021/10/12 08:14:06;;;;;;;42.80;18.30;;;;;;;10.43;52.73;98516.13;112541;1190;60839;-21
2021/10/12 08:16:35;;;;;;;37.80;18.70;;;;;;;10.29;52.81;98519.42;112488;1189;61954;-21
2021/10/12 08:19:05;;;;;;;58.80;20.30;;;;;;;10.26;53.00;98521.42;112438;1190;74200;-22
2021/10/12 08:21:34;;;;;;;32.70;17.00;;;;;;;10.22;52.84;98520.38;112463;1191;75635;-21
2021/10/12 08:24:02;;;;;;;30.10;17.50;;;;;;;10.20;52.91;98518.16;112517;1190;73186;-22
2021/10/12 08:26:31;;;;;;;42.40;20.50;;;;;;;10.28;52.98;98516.73;112431;1190;60812;-22
2021/10/12 08:29:00;;;;;;;40.30;20.60;;;;;;;10.33;53.10;98513.67;112500;1189;60806;-22
2021/10/12 08:31:29;;;;;;;41.60;21.60;;;;;;;10.27;52.20;98511.26;112532;1190;74893;-22
2021/10/12 08:33:57;;;;;;;46.50;19.80;;;;;;;10.26;52.46;98509.59;112458;1191;74454;-22
2021/10/12 08:36:27;;;;;;;41.20;20.90;;;;;;;10.35;53.65;98509.73;112448;1192;74565;-22
2021/10/12 08:39:05;;;;;;;41.90;21.30;;;;;;;10.40;52.96;98505.31;112522;1190;60821;-22
2021/10/12 08:41:47;;;;;;;44.00;19.10;;;;;;;10.36;52.81;98511.73;112233;1192;60810;-22
2021/10/12 08:44:15;;;;;;;46.80;19.50;;;;;;;10.34;52.85;98511.70;112271;1192;75350;-22
2021/10/12 08:46:47;;;;;;;36.70;20.10;;;;;;;10.33;53.33;98506.77;112447;1190;75305;-22
2021/10/12 08:49:16;;;;;;;38.40;20.80;;;;;;;10.36;52.87;98506.28;112556;1190;73642;-22
2021/10/12 08:51:45;;;;;;;39.40;19.60;;;;;;;10.38;52.80;98501.59;112543;1189;61270;-22
2021/10/12 08:54:17;;;;;;;58.50;23.70;;;;;;;10.44;52.80;98497.30;112528;1190;60822;-22
2021/10/12 08:56:45;;;;;;;42.60;20.60;;;;;;;10.43;53.63;98499.70;112477;1190;72543;-22
2021/10/12 08:59:13;;;;;;;42.40;19.70;;;;;;;10.45;53.16;98498.93;112463;1190;74707;-21
2021/10/12 09:02:15;;;;;;;36.90;18.40;;;;;;;10.49;53.31;98501.92;112418;1191;71764;-22
2021/10/12 09:04:43;;;;;;;39.70;20.90;;;;;;;10.53;53.11;98502.25;112331;1190;60857;-22
2021/10/12 09:07:19;;;;;;;42.00;17.20;;;;;;;10.62;54.37;98501.80;112498;1189;60965;-22
2021/10/12 09:09:48;;;;;;;41.30;19.30;;;;;;;10.65;53.13;98502.02;112448;1191;75239;-22
2021/10/12 09:12:16;;;;;;;36.20;21.40;;;;;;;10.66;53.53;98497.75;112408;1176;75638;-21
2021/10/12 09:14:52;;;;;;;38.10;19.50;;;;;;;10.78;53.39;98503.64;112522;1190;74557;-22
2021/10/12 09:17:41;;;;;;;48.40;23.20;;;;;;;10.84;53.99;98497.90;112393;1191;62030;-22
2021/10/12 09:20:12;;;;;;;42.70;19.50;;;;;;;10.85;53.68;98497.56;112295;1190;60834;-22
2021/10/12 09:23:09;;;;;;;37.00;20.30;;;;;;;10.94;53.07;98492.15;112495;1192;74268;-22
2021/10/12 09:25:42;;;;;;;40.50;18.70;;;;;;;10.97;53.89;98486.60;112494;1193;75751;-22
2021/10/12 09:28:28;;;;;;;36.20;21.10;;;;;;;11.03;53.67;98486.48;112498;1190;72998;-22
2021/10/12 09:31:00;;;;;;;34.80;17.30;;;;;;;11.02;54.21;98482.06;112424;1190;60998;-22
2021/10/12 09:33:29;;;;;;;30.00;15.20;;;;;;;11.05;53.88;98482.23;112465;1190;61465;-21
2021/10/12 09:35:57;;;;;;;36.30;17.10;;;;;;;11.09;53.93;98485.18;112494;1190;74398;-22
2021/10/12 09:38:26;;;;;;;41.90;19.10;;;;;;;11.12;54.06;98483.84;112451;1190;75697;-22
2021/10/12 09:40:55;;;;;;;30.40;14.80;;;;;;;11.12;54.05;98482.80;112509;1190;74064;-21
2021/10/12 09:43:35;;;;;;;33.90;16.80;;;;;;;11.10;54.53;98478.16;112429;1190;60940;-22
2021/10/12 09:46:19;;;;;;;31.90;15.50;;;;;;;11.06;54.68;98478.37;112267;1192;61402;-20
2021/10/12 09:48:47;;;;;;;35.00;16.50;;;;;;;11.11;54.05;98476.48;112400;1192;73950;-22
2021/10/12 09:51:16;;;;;;;38.20;19.40;;;;;;;11.08;56.26;98475.34;112485;1189;74627;-23
2021/10/12 09:53:46;;;;;;;29.60;15.90;;;;;;;10.97;56.24;98473.79;112426;1190;74001;-23
2021/10/12 09:56:14;;;;;;;30.30;16.20;;;;;;;11.05;55.11;98474.48;112400;1190;60956;-23
2021/10/12 09:58:45;;;;;;;25.80;14.10;;;;;;;11.12;55.68;98473.30;112469;1190;61479;-23
2021/10/12 10:01:13;;;;;;;27.90;14.90;;;;;;;11.19;54.81;98469.13;112473;1191;74877;-22
2021/10/12 10:03:42;;;;;;;30.20;16.00;;;;;;;11.23;54.70;98467.81;112419;1192;74666;-22
2021/10/12 10:06:12;;;;;;;29.00;15.60;;;;;;;11.24;55.48;98461.05;112500;1190;74152;-22
2021/10/12 10:08:48;;;;;;;29.60;15.80;;;;;;;11.16;55.98;98461.14;112286;1191;60821;-22
2021/10/12 10:11:38;;;;;;;31.40;15.50;;;;;;;11.11;56.38;98458.21;112416;1192;61372;-21
2021/10/12 10:14:09;;;;;;;29.50;16.20;;;;;;;11.09;56.48;98455.64;112469;1191;75381;-21
2021/10/12 10:16:53;;;;;;;37.70;18.10;;;;;;;11.10;56.36;98454.67;112467;1190;74693;-22
2021/10/12 10:19:24;;;;;;;35.20;17.30;;;;;;;11.07;57.50;98451.97;112450;1190;74031;-22
2021/10/12 10:21:53;;;;;;;30.30;14.50;;;;;;;10.96;56.74;98449.20;112388;1193;61503;-22
2021/10/12 10:24:30;;;;;;;32.30;17.10;;;;;;;10.97;56.42;98448.13;112523;1189;60965;-22
2021/10/12 10:27:00;;;;;;;29.30;14.90;;;;;;;10.93;56.85;98444.98;112255;1190;75209;-22
2021/10/12 10:29:37;;;;;;;37.00;18.00;;;;;;;10.87;59.38;98439.95;112561;1190;75819;-21
2021/10/12 10:32:20;;;;;;;31.20;16.80;;;;;;;10.62;60.04;98435.34;112437;1192;71838;-22
2021/10/12 10:35:01;;;;;;;29.00;15.80;;;;;;;10.52;60.22;98432.75;112264;1190;61963;-22
2021/10/12 10:37:32;;;;;;;33.60;19.00;;;;;;;10.44;60.75;98433.11;112472;1192;60896;-22
2021/10/12 10:40:21;;;;;;;33.30;17.30;;;;;;;10.35;61.16;98436.52;112433;1192;75156;-22
2021/10/12 10:42:53;;;;;;;32.40;15.90;;;;;;;10.35;61.28;98444.45;112488;1192;72799;-23
2021/10/12 10:45:38;;;;;;;36.00;16.30;;;;;;;10.37;61.40;98442.59;112401;1193;74337;-23
2021/10/12 10:48:08;;;;;;;29.80;17.00;;;;;;;10.27;62.83;98437.21;112461;1192;60811;-23
2021/10/12 10:50:37;;;;;;;28.50;16.60;;;;;;;10.23;63.12;98441.81;112453;1191;61583;-23
2021/10/12 10:53:08;;;;;;;39.60;16.80;;;;;;;10.22;63.38;98441.08;112440;1190;74261;-23
2021/10/12 10:55:39;;;;;;;28.40;15.30;;;;;;;10.17;63.93;98440.50;112235;1192;75818;-23
2021/10/12 10:58:07;;;;;;;31.90;15.10;;;;;;;10.06;64.72;98439.75;112371;1190;74224;-22
2021/10/12 11:00:37;;;;;;;22.30;11.80;;;;;;;10.22;64.38;98437.09;112240;1191;63314;-22
2021/10/12 11:03:06;;;;;;;30.90;15.70;;;;;;;10.83;63.22;98431.50;112404;1191;61400;-22
2021/10/12 11:05:41;;;;;;;169.10;22.70;;;;;;;10.89;63.17;98427.27;112499;1190;73651;-22
2021/10/12 11:08:13;;;;;;;32.70;15.80;;;;;;;10.48;64.32;98409.48;112190;1192;73774;-22
2021/10/12 11:10:42;;;;;;;29.50;16.20;;;;;;;10.16;65.60;98411.45;112403;1191;73701;-22
2021/10/12 11:13:11;;;;;;;34.30;17.50;;;;;;;10.09;66.15;98412.05;112206;1191;61884;-22
2021/10/12 11:15:49;;;;;;;41.20;15.30;;;;;;;9.90;67.13;98411.02;112245;1191;60844;-22
2021/10/12 11:18:17;;;;;;;29.50;14.90;;;;;;;9.83;67.38;98410.90;112490;1191;75199;-22
2021/10/12 11:20:53;;;;;;;28.30;14.80;;;;;;;9.66;67.67;98412.02;112429;1193;74324;-22
2021/10/12 11:23:30;;;;;;;23.20;11.10;;;;;;;9.70;67.72;98418.67;112384;1192;74259;-21
2021/10/12 11:26:30;;;;;;;25.30;12.40;;;;;;;9.65;67.85;98419.24;112197;1192;63097;-22
2021/10/12 11:29:00;;;;;;;25.10;11.90;;;;;;;10.45;66.14;98423.81;112391;1192;61456;-22
2021/10/12 11:31:29;;;;;;;20.70;11.70;;;;;;;10.89;64.13;98430.05;112410;1192;74283;-22